sensor_id;sensor_type;location;lat;lon;timestamp;temperature;humidity
2463;DHT22;1243;54.298;10.172;2023-05-10T00:00:15;13.70;99.90
2463;DHT22;1243;54.298;10.172;2023-05-10T00:02:40;13.70;99.90
2463;DHT22;1243;54.298;10.172;2023-05-10T00:05:06;13.70;99.90
2463;DHT22;1243;54.298;10.172;2023-05-10T00:07:32;13.70;99.90
2463;DHT22;1243;54.298;10.172;2023-05-10T00:09:58;13.70;99.90
2463;DHT22;1243;54.298;10.172;2023-05-10T00:12:24;13.70;99.90
2463;DHT22;1243;54.298;10.172;2023-05-10T00:14:50;13.70;99.90
2463;DHT22;1243;54.298;10.172;2023-05-10T00:17:15;13.70;99.90
2463;DHT22;1243;54.298;10.172;2023-05-10T00:19:41;13.70;99.90
2463;DHT22;1243;54.298;10.172;2023-05-10T00:22:07;13.60;99.90
2463;DHT22;1243;54.298;10.172;2023-05-10T00:24:32;13.60;99.90
2463;DHT22;1243;54.298;10.172;2023-05-10T00:26:58;13.50;99.90
2463;DHT22;1243;54.298;10.172;2023-05-10T00:29:24;13.40;99.90
2463;DHT22;1243;54.298;10.172;2023-05-10T00:31:49;13.40;99.90
2463;DHT22;1243;54.298;10.172;2023-05-10T00:34:15;13.30;99.90
2463;DHT22;1243;54.298;10.172;2023-05-10T00:36:41;13.30;99.90
2463;DHT22;1243;54.298;10.172;2023-05-10T00:39:07;13.30;99.90
2463;DHT22;1243;54.298;10.172;2023-05-10T00:41:33;13.30;99.90
2463;DHT22;1243;54.298;10.172;2023-05-10T00:43:59;13.20;99.90
2463;DHT22;1243;54.298;10.172;2023-05-10T00:46:25;13.20;99.90
2463;DHT22;1243;54.298;10.172;2023-05-10T00:48:51;13.10;99.90
2463;DHT22;1243;54.298;10.172;2023-05-10T00:51:17;13.10;99.90
2463;DHT22;1243;54.298;10.172;2023-05-10T00:53:45;13.10;99.90
2463;DHT22;1243;54.298;10.172;2023-05-10T00:56:11;13.10;99.90
2463;DHT22;1243;54.298;10.172;2023-05-10T00:58:38;13.10;99.90
2463;DHT22;1243;54.298;10.172;2023-05-10T01:01:04;13.10;99.90
2463;DHT22;1243;54.298;10.172;2023-05-10T01:03:32;13.10;99.90
2463;DHT22;1243;54.298;10.172;2023-05-10T01:05:58;13.00;99.90
2463;DHT22;1243;54.298;10.172;2023-05-10T01:08:24;13.00;99.90
2463;DHT22;1243;54.298;10.172;2023-05-10T01:10:51;13.00;99.90
2463;DHT22;1243;54.298;10.172;2023-05-10T01:13:44;13.00;99.90
2463;DHT22;1243;54.298;10.172;2023-05-10T01:16:09;13.00;99.90
2463;DHT22;1243;54.298;10.172;2023-05-10T01:18:38;13.00;99.90
2463;DHT22;1243;54.298;10.172;2023-05-10T01:23:53;12.90;99.90
2463;DHT22;1243;54.298;10.172;2023-05-10T01:35:06;12.90;99.90
2463;DHT22;1243;54.298;10.172;2023-05-10T01:37:46;12.90;99.90
2463;DHT22;1243;54.298;10.172;2023-05-10T01:42:54;12.80;99.90
2463;DHT22;1243;54.298;10.172;2023-05-10T01:45:36;12.90;99.90
2463;DHT22;1243;54.298;10.172;2023-05-10T01:48:10;12.80;99.90
2463;DHT22;1243;54.298;10.172;2023-05-10T01:50:38;12.80;99.90
2463;DHT22;1243;54.298;10.172;2023-05-10T01:53:07;12.80;99.90
2463;DHT22;1243;54.298;10.172;2023-05-10T01:55:39;12.80;99.90
2463;DHT22;1243;54.298;10.172;2023-05-10T01:58:09;12.70;99.90
2463;DHT22;1243;54.298;10.172;2023-05-10T02:00:35;12.80;99.90
2463;DHT22;1243;54.298;10.172;2023-05-10T02:03:05;12.70;99.90
2463;DHT22;1243;54.298;10.172;2023-05-10T02:05:33;12.70;99.90
2463;DHT22;1243;54.298;10.172;2023-05-10T02:08:01;12.70;99.90
2463;DHT22;1243;54.298;10.172;2023-05-10T02:10:29;12.60;99.90
2463;DHT22;1243;54.298;10.172;2023-05-10T02:12:58;12.60;99.90
2463;DHT22;1243;54.298;10.172;2023-05-10T02:15:26;12.70;99.90
2463;DHT22;1243;54.298;10.172;2023-05-10T02:17:54;12.60;99.90
2463;DHT22;1243;54.298;10.172;2023-05-10T02:20:22;12.60;99.90
2463;DHT22;1243;54.298;10.172;2023-05-10T02:22:51;12.50;99.90
2463;DHT22;1243;54.298;10.172;2023-05-10T02:25:21;12.50;99.90
2463;DHT22;1243;54.298;10.172;2023-05-10T02:27:48;12.50;99.90
2463;DHT22;1243;54.298;10.172;2023-05-10T02:30:15;12.50;99.90
2463;DHT22;1243;54.298;10.172;2023-05-10T02:32:42;12.50;99.90
2463;DHT22;1243;54.298;10.172;2023-05-10T02:35:08;12.60;99.90
2463;DHT22;1243;54.298;10.172;2023-05-10T02:37:37;12.50;99.90
2463;DHT22;1243;54.298;10.172;2023-05-10T02:40:05;12.50;99.90
2463;DHT22;1243;54.298;10.172;2023-05-10T02:42:34;12.40;99.90
2463;DHT22;1243;54.298;10.172;2023-05-10T02:45:03;12.40;99.90
2463;DHT22;1243;54.298;10.172;2023-05-10T02:47:31;12.40;99.90
2463;DHT22;1243;54.298;10.172;2023-05-10T02:49:57;12.40;99.90
2463;DHT22;1243;54.298;10.172;2023-05-10T02:52:29;12.40;99.90
2463;DHT22;1243;54.298;10.172;2023-05-10T02:54:59;12.40;99.90
2463;DHT22;1243;54.298;10.172;2023-05-10T02:57:33;12.40;99.90
2463;DHT22;1243;54.298;10.172;2023-05-10T03:05:45;12.40;99.90
2463;DHT22;1243;54.298;10.172;2023-05-10T03:08:11;12.30;99.90
2463;DHT22;1243;54.298;10.172;2023-05-10T03:13:41;12.30;99.90
2463;DHT22;1243;54.298;10.172;2023-05-10T03:16:14;12.30;99.90
2463;DHT22;1243;54.298;10.172;2023-05-10T03:18:48;12.30;99.90
2463;DHT22;1243;54.298;10.172;2023-05-10T03:21:17;12.30;99.90
2463;DHT22;1243;54.298;10.172;2023-05-10T03:23:50;12.20;99.90
2463;DHT22;1243;54.298;10.172;2023-05-10T03:26:27;12.20;99.90
2463;DHT22;1243;54.298;10.172;2023-05-10T03:28:55;12.20;99.90
2463;DHT22;1243;54.298;10.172;2023-05-10T03:31:21;12.10;99.90
2463;DHT22;1243;54.298;10.172;2023-05-10T03:33:48;12.10;99.90
2463;DHT22;1243;54.298;10.172;2023-05-10T03:36:14;12.10;99.90
2463;DHT22;1243;54.298;10.172;2023-05-10T03:38:40;12.10;99.90
2463;DHT22;1243;54.298;10.172;2023-05-10T03:41:06;12.10;99.90
2463;DHT22;1243;54.298;10.172;2023-05-10T03:43:32;12.10;99.90
2463;DHT22;1243;54.298;10.172;2023-05-10T03:45:58;12.00;99.90
2463;DHT22;1243;54.298;10.172;2023-05-10T03:48:23;12.00;99.90
2463;DHT22;1243;54.298;10.172;2023-05-10T03:53:31;12.00;99.90
2463;DHT22;1243;54.298;10.172;2023-05-10T03:56:17;12.10;99.90
2463;DHT22;1243;54.298;10.172;2023-05-10T03:58:46;12.10;99.90
2463;DHT22;1243;54.298;10.172;2023-05-10T04:01:25;12.00;99.90
2463;DHT22;1243;54.298;10.172;2023-05-10T04:04:01;11.90;99.90
2463;DHT22;1243;54.298;10.172;2023-05-10T04:06:27;12.00;99.90
2463;DHT22;1243;54.298;10.172;2023-05-10T04:08:53;12.00;99.90
2463;DHT22;1243;54.298;10.172;2023-05-10T04:11:19;12.00;99.90
2463;DHT22;1243;54.298;10.172;2023-05-10T04:13:47;11.90;99.90
2463;DHT22;1243;54.298;10.172;2023-05-10T04:16:22;12.00;99.90
2463;DHT22;1243;54.298;10.172;2023-05-10T04:18:48;12.00;99.90
2463;DHT22;1243;54.298;10.172;2023-05-10T04:21:30;12.00;99.90
2463;DHT22;1243;54.298;10.172;2023-05-10T04:23:56;12.00;99.90
2463;DHT22;1243;54.298;10.172;2023-05-10T04:26:21;12.00;99.90
2463;DHT22;1243;54.298;10.172;2023-05-10T04:28:47;12.00;99.90
2463;DHT22;1243;54.298;10.172;2023-05-10T04:31:13;12.00;99.90
2463;DHT22;1243;54.298;10.172;2023-05-10T04:33:39;12.00;99.90
2463;DHT22;1243;54.298;10.172;2023-05-10T04:36:05;12.00;99.90
2463;DHT22;1243;54.298;10.172;2023-05-10T04:38:34;12.10;99.90
2463;DHT22;1243;54.298;10.172;2023-05-10T04:41:10;12.10;99.90
2463;DHT22;1243;54.298;10.172;2023-05-10T04:43:36;12.10;99.90
2463;DHT22;1243;54.298;10.172;2023-05-10T04:46:02;12.10;99.90
2463;DHT22;1243;54.298;10.172;2023-05-10T04:48:29;12.10;99.90
2463;DHT22;1243;54.298;10.172;2023-05-10T04:50:58;12.10;99.90
2463;DHT22;1243;54.298;10.172;2023-05-10T04:53:23;12.20;99.90
2463;DHT22;1243;54.298;10.172;2023-05-10T04:55:49;12.20;99.90
2463;DHT22;1243;54.298;10.172;2023-05-10T04:58:15;12.30;99.90
2463;DHT22;1243;54.298;10.172;2023-05-10T05:00:41;12.30;99.90
2463;DHT22;1243;54.298;10.172;2023-05-10T05:03:07;12.30;99.90
2463;DHT22;1243;54.298;10.172;2023-05-10T05:05:33;12.40;99.90
2463;DHT22;1243;54.298;10.172;2023-05-10T05:07:59;12.40;99.90
2463;DHT22;1243;54.298;10.172;2023-05-10T05:10:25;12.40;99.90
2463;DHT22;1243;54.298;10.172;2023-05-10T05:12:50;12.30;99.90
2463;DHT22;1243;54.298;10.172;2023-05-10T05:15:16;12.40;99.90
2463;DHT22;1243;54.298;10.172;2023-05-10T05:20:40;12.40;99.90
2463;DHT22;1243;54.298;10.172;2023-05-10T05:23:06;12.40;99.90
2463;DHT22;1243;54.298;10.172;2023-05-10T05:25:32;12.40;99.90
2463;DHT22;1243;54.298;10.172;2023-05-10T05:27:57;12.40;99.90
2463;DHT22;1243;54.298;10.172;2023-05-10T05:30:23;12.50;99.90
2463;DHT22;1243;54.298;10.172;2023-05-10T05:32:49;12.40;99.90
2463;DHT22;1243;54.298;10.172;2023-05-10T05:35:15;12.50;99.90
2463;DHT22;1243;54.298;10.172;2023-05-10T05:37:40;12.50;99.90
2463;DHT22;1243;54.298;10.172;2023-05-10T05:40:06;12.50;99.90
2463;DHT22;1243;54.298;10.172;2023-05-10T05:42:32;12.60;99.90
2463;DHT22;1243;54.298;10.172;2023-05-10T05:44:58;12.60;99.90
2463;DHT22;1243;54.298;10.172;2023-05-10T05:47:24;12.70;99.90
2463;DHT22;1243;54.298;10.172;2023-05-10T05:49:50;12.70;99.90
2463;DHT22;1243;54.298;10.172;2023-05-10T05:52:16;12.80;99.90
2463;DHT22;1243;54.298;10.172;2023-05-10T05:54:42;12.90;99.90
2463;DHT22;1243;54.298;10.172;2023-05-10T05:57:08;12.90;99.90
2463;DHT22;1243;54.298;10.172;2023-05-10T05:59:34;12.90;99.90
2463;DHT22;1243;54.298;10.172;2023-05-10T06:02:00;13.00;99.90
2463;DHT22;1243;54.298;10.172;2023-05-10T06:04:26;13.10;99.90
2463;DHT22;1243;54.298;10.172;2023-05-10T06:06:51;13.10;99.90
2463;DHT22;1243;54.298;10.172;2023-05-10T06:09:17;13.20;99.90
2463;DHT22;1243;54.298;10.172;2023-05-10T06:11:43;13.20;99.90
2463;DHT22;1243;54.298;10.172;2023-05-10T06:14:09;13.40;99.90
2463;DHT22;1243;54.298;10.172;2023-05-10T06:16:35;13.40;99.90
2463;DHT22;1243;54.298;10.172;2023-05-10T06:19:02;13.50;99.90
2463;DHT22;1243;54.298;10.172;2023-05-10T06:21:28;13.50;99.90
2463;DHT22;1243;54.298;10.172;2023-05-10T06:23:53;13.60;99.90
2463;DHT22;1243;54.298;10.172;2023-05-10T06:26:21;13.60;99.90
2463;DHT22;1243;54.298;10.172;2023-05-10T06:28:47;13.70;99.90
2463;DHT22;1243;54.298;10.172;2023-05-10T06:31:13;13.70;99.90
2463;DHT22;1243;54.298;10.172;2023-05-10T06:33:39;13.70;99.90
2463;DHT22;1243;54.298;10.172;2023-05-10T06:36:05;13.70;99.90
2463;DHT22;1243;54.298;10.172;2023-05-10T06:38:31;13.80;99.90
2463;DHT22;1243;54.298;10.172;2023-05-10T06:40:56;13.80;99.90
2463;DHT22;1243;54.298;10.172;2023-05-10T06:43:22;13.90;99.90
2463;DHT22;1243;54.298;10.172;2023-05-10T06:45:50;13.80;99.90
2463;DHT22;1243;54.298;10.172;2023-05-10T06:48:16;13.90;99.90
2463;DHT22;1243;54.298;10.172;2023-05-10T06:50:42;13.90;99.90
2463;DHT22;1243;54.298;10.172;2023-05-10T06:53:08;14.00;99.90
2463;DHT22;1243;54.298;10.172;2023-05-10T06:55:34;14.00;99.90
2463;DHT22;1243;54.298;10.172;2023-05-10T06:57:59;14.00;99.90
2463;DHT22;1243;54.298;10.172;2023-05-10T07:00:25;14.00;99.90
2463;DHT22;1243;54.298;10.172;2023-05-10T07:02:51;14.10;99.90
2463;DHT22;1243;54.298;10.172;2023-05-10T07:05:17;14.10;99.90
2463;DHT22;1243;54.298;10.172;2023-05-10T07:07:43;14.00;99.90
2463;DHT22;1243;54.298;10.172;2023-05-10T07:10:09;14.00;99.90
2463;DHT22;1243;54.298;10.172;2023-05-10T07:12:35;14.10;99.90
2463;DHT22;1243;54.298;10.172;2023-05-10T07:15:01;14.10;99.90
2463;DHT22;1243;54.298;10.172;2023-05-10T07:17:27;14.10;99.90
2463;DHT22;1243;54.298;10.172;2023-05-10T07:19:55;14.10;99.90
2463;DHT22;1243;54.298;10.172;2023-05-10T07:22:21;14.20;99.90
2463;DHT22;1243;54.298;10.172;2023-05-10T07:24:47;14.30;99.90
2463;DHT22;1243;54.298;10.172;2023-05-10T07:27:14;14.40;99.90
2463;DHT22;1243;54.298;10.172;2023-05-10T07:29:40;14.40;99.90
2463;DHT22;1243;54.298;10.172;2023-05-10T07:32:06;14.40;99.90
2463;DHT22;1243;54.298;10.172;2023-05-10T07:34:31;14.50;99.90
2463;DHT22;1243;54.298;10.172;2023-05-10T07:37:03;14.50;99.90
2463;DHT22;1243;54.298;10.172;2023-05-10T07:39:29;14.40;99.90
2463;DHT22;1243;54.298;10.172;2023-05-10T07:41:55;14.50;99.90
2463;DHT22;1243;54.298;10.172;2023-05-10T07:44:21;14.70;99.90
2463;DHT22;1243;54.298;10.172;2023-05-10T07:46:47;14.80;99.90
2463;DHT22;1243;54.298;10.172;2023-05-10T07:52:24;15.00;99.90
2463;DHT22;1243;54.298;10.172;2023-05-10T07:54:50;15.10;99.90
2463;DHT22;1243;54.298;10.172;2023-05-10T07:57:18;15.30;99.90
2463;DHT22;1243;54.298;10.172;2023-05-10T08:02:57;15.50;99.90
2463;DHT22;1243;54.298;10.172;2023-05-10T08:05:23;15.50;99.90
2463;DHT22;1243;54.298;10.172;2023-05-10T08:07:49;15.60;99.90
2463;DHT22;1243;54.298;10.172;2023-05-10T08:10:15;15.70;99.90
2463;DHT22;1243;54.298;10.172;2023-05-10T08:12:42;15.80;99.90
2463;DHT22;1243;54.298;10.172;2023-05-10T08:15:08;15.90;99.90
2463;DHT22;1243;54.298;10.172;2023-05-10T08:17:34;16.10;99.90
2463;DHT22;1243;54.298;10.172;2023-05-10T08:26:23;16.60;99.90
2463;DHT22;1243;54.298;10.172;2023-05-10T08:28:49;16.80;99.90
2463;DHT22;1243;54.298;10.172;2023-05-10T08:31:15;16.80;99.90
2463;DHT22;1243;54.298;10.172;2023-05-10T08:33:44;16.90;99.90
2463;DHT22;1243;54.298;10.172;2023-05-10T08:36:12;16.90;99.90
2463;DHT22;1243;54.298;10.172;2023-05-10T08:41:43;17.20;99.90
2463;DHT22;1243;54.298;10.172;2023-05-10T08:50:45;17.70;99.90
2463;DHT22;1243;54.298;10.172;2023-05-10T08:53:30;17.90;99.90
2463;DHT22;1243;54.298;10.172;2023-05-10T08:55:59;18.20;99.90
2463;DHT22;1243;54.298;10.172;2023-05-10T09:01:39;18.30;99.90
2463;DHT22;1243;54.298;10.172;2023-05-10T09:04:06;18.40;99.90
2463;DHT22;1243;54.298;10.172;2023-05-10T09:06:46;18.50;99.90
2463;DHT22;1243;54.298;10.172;2023-05-10T09:09:12;18.70;99.90
2463;DHT22;1243;54.298;10.172;2023-05-10T09:11:41;18.60;99.90
2463;DHT22;1243;54.298;10.172;2023-05-10T09:14:08;18.70;99.90
2463;DHT22;1243;54.298;10.172;2023-05-10T09:17:00;18.70;99.90
2463;DHT22;1243;54.298;10.172;2023-05-10T09:19:27;18.70;99.90
2463;DHT22;1243;54.298;10.172;2023-05-10T09:21:53;18.70;99.90
2463;DHT22;1243;54.298;10.172;2023-05-10T09:24:19;18.80;99.90
2463;DHT22;1243;54.298;10.172;2023-05-10T09:26:48;19.10;99.90
2463;DHT22;1243;54.298;10.172;2023-05-10T09:29:14;19.10;99.90
2463;DHT22;1243;54.298;10.172;2023-05-10T09:31:49;19.00;99.90
2463;DHT22;1243;54.298;10.172;2023-05-10T09:34:30;19.00;99.90
2463;DHT22;1243;54.298;10.172;2023-05-10T09:36:59;19.10;99.90
2463;DHT22;1243;54.298;10.172;2023-05-10T09:39:36;19.20;99.90
2463;DHT22;1243;54.298;10.172;2023-05-10T09:42:08;19.20;99.90
2463;DHT22;1243;54.298;10.172;2023-05-10T09:44:36;19.30;99.90
2463;DHT22;1243;54.298;10.172;2023-05-10T09:47:04;19.50;99.90
2463;DHT22;1243;54.298;10.172;2023-05-10T09:49:30;19.70;99.90
2463;DHT22;1243;54.298;10.172;2023-05-10T09:52:07;20.00;99.90
2463;DHT22;1243;54.298;10.172;2023-05-10T09:54:36;20.10;99.90
2463;DHT22;1243;54.298;10.172;2023-05-10T09:57:02;20.20;99.90
2463;DHT22;1243;54.298;10.172;2023-05-10T09:59:29;20.10;99.90
2463;DHT22;1243;54.298;10.172;2023-05-10T10:01:59;20.20;99.90
2463;DHT22;1243;54.298;10.172;2023-05-10T10:04:25;20.30;99.90
2463;DHT22;1243;54.298;10.172;2023-05-10T10:07:04;20.50;99.90
2463;DHT22;1243;54.298;10.172;2023-05-10T10:09:31;20.50;99.90
2463;DHT22;1243;54.298;10.172;2023-05-10T10:11:57;20.60;99.90
2463;DHT22;1243;54.298;10.172;2023-05-10T10:14:25;20.80;99.90
2463;DHT22;1243;54.298;10.172;2023-05-10T10:17:01;21.10;99.90
2463;DHT22;1243;54.298;10.172;2023-05-10T10:19:27;21.10;99.90
2463;DHT22;1243;54.298;10.172;2023-05-10T10:21:53;21.30;99.90
2463;DHT22;1243;54.298;10.172;2023-05-10T10:24:39;21.30;99.90
2463;DHT22;1243;54.298;10.172;2023-05-10T10:33:26;21.30;99.90
2463;DHT22;1243;54.298;10.172;2023-05-10T10:35:44;21.40;99.90
2463;DHT22;1243;54.298;10.172;2023-05-10T10:38:21;21.50;99.90
2463;DHT22;1243;54.298;10.172;2023-05-10T10:40:48;21.40;99.90
2463;DHT22;1243;54.298;10.172;2023-05-10T10:43:32;21.50;99.90
2463;DHT22;1243;54.298;10.172;2023-05-10T10:46:17;21.60;99.90
2463;DHT22;1243;54.298;10.172;2023-05-10T10:49:07;21.50;99.90
2463;DHT22;1243;54.298;10.172;2023-05-10T10:51:40;21.30;99.90
2463;DHT22;1243;54.298;10.172;2023-05-10T10:54:10;21.10;99.90
2463;DHT22;1243;54.298;10.172;2023-05-10T11:00:35;21.00;99.90
2463;DHT22;1243;54.298;10.172;2023-05-10T11:03:06;20.90;99.90
2463;DHT22;1243;54.298;10.172;2023-05-10T11:11:54;21.10;99.90
2463;DHT22;1243;54.298;10.172;2023-05-10T11:17:42;20.70;99.90
2463;DHT22;1243;54.298;10.172;2023-05-10T11:20:28;20.50;99.90
2463;DHT22;1243;54.298;10.172;2023-05-10T11:23:16;20.30;99.90
2463;DHT22;1243;54.298;10.172;2023-05-10T11:25:53;20.20;99.90
2463;DHT22;1243;54.298;10.172;2023-05-10T11:28:31;20.00;99.90
2463;DHT22;1243;54.298;10.172;2023-05-10T11:34:38;19.80;99.90
2463;DHT22;1243;54.298;10.172;2023-05-10T11:37:18;19.70;99.90
2463;DHT22;1243;54.298;10.172;2023-05-10T11:39:48;19.50;99.90
2463;DHT22;1243;54.298;10.172;2023-05-10T11:42:14;19.50;99.90
2463;DHT22;1243;54.298;10.172;2023-05-10T11:44:40;19.60;99.90
2463;DHT22;1243;54.298;10.172;2023-05-10T11:47:07;19.80;99.90
2463;DHT22;1243;54.298;10.172;2023-05-10T11:49:36;19.70;99.90
2463;DHT22;1243;54.298;10.172;2023-05-10T11:52:09;19.70;99.90
2463;DHT22;1243;54.298;10.172;2023-05-10T11:54:55;19.80;99.90
2463;DHT22;1243;54.298;10.172;2023-05-10T11:58:43;19.70;99.90
2463;DHT22;1243;54.298;10.172;2023-05-10T12:00:56;19.60;99.90
2463;DHT22;1243;54.298;10.172;2023-05-10T12:03:23;19.60;99.90
2463;DHT22;1243;54.298;10.172;2023-05-10T12:05:49;19.60;99.90
2463;DHT22;1243;54.298;10.172;2023-05-10T12:14:51;19.50;99.90
2463;DHT22;1243;54.298;10.172;2023-05-10T12:17:20;19.50;99.90
2463;DHT22;1243;54.298;10.172;2023-05-10T12:20:13;19.50;99.90
2463;DHT22;1243;54.298;10.172;2023-05-10T12:22:50;19.60;99.90
2463;DHT22;1243;54.298;10.172;2023-05-10T12:25:36;19.50;99.90
2463;DHT22;1243;54.298;10.172;2023-05-10T12:31:01;19.10;99.90
2463;DHT22;1243;54.298;10.172;2023-05-10T12:33:38;18.70;99.90
2463;DHT22;1243;54.298;10.172;2023-05-10T12:36:09;18.50;99.90
2463;DHT22;1243;54.298;10.172;2023-05-10T12:38:43;18.20;99.90
2463;DHT22;1243;54.298;10.172;2023-05-10T12:41:10;17.80;99.90
2463;DHT22;1243;54.298;10.172;2023-05-10T12:43:37;17.50;99.90
2463;DHT22;1243;54.298;10.172;2023-05-10T12:49:19;17.00;1.00
2463;DHT22;1243;54.298;10.172;2023-05-10T12:51:45;16.80;1.00
2463;DHT22;1243;54.298;10.172;2023-05-10T12:54:11;16.60;1.00
2463;DHT22;1243;54.298;10.172;2023-05-10T12:56:40;16.50;1.00
2463;DHT22;1243;54.298;10.172;2023-05-10T12:59:08;16.40;1.00
2463;DHT22;1243;54.298;10.172;2023-05-10T13:01:46;16.20;1.00
2463;DHT22;1243;54.298;10.172;2023-05-10T13:04:12;16.10;1.00
2463;DHT22;1243;54.298;10.172;2023-05-10T13:06:38;16.10;1.00
2463;DHT22;1243;54.298;10.172;2023-05-10T13:09:04;16.00;1.00
2463;DHT22;1243;54.298;10.172;2023-05-10T13:14:35;16.00;1.00
2463;DHT22;1243;54.298;10.172;2023-05-10T13:17:17;16.10;1.00
2463;DHT22;1243;54.298;10.172;2023-05-10T13:19:43;15.90;1.00
2463;DHT22;1243;54.298;10.172;2023-05-10T13:22:09;15.80;1.00
2463;DHT22;1243;54.298;10.172;2023-05-10T13:24:35;15.80;1.00
2463;DHT22;1243;54.298;10.172;2023-05-10T13:27:00;15.90;1.00
2463;DHT22;1243;54.298;10.172;2023-05-10T13:29:26;15.90;1.00
2463;DHT22;1243;54.298;10.172;2023-05-10T13:31:52;15.90;1.00
2463;DHT22;1243;54.298;10.172;2023-05-10T13:34:21;15.80;1.00
2463;DHT22;1243;54.298;10.172;2023-05-10T13:36:47;15.80;1.00
2463;DHT22;1243;54.298;10.172;2023-05-10T13:39:13;15.70;1.00
2463;DHT22;1243;54.298;10.172;2023-05-10T13:41:41;15.80;1.00
2463;DHT22;1243;54.298;10.172;2023-05-10T13:44:17;15.70;1.00
2463;DHT22;1243;54.298;10.172;2023-05-10T13:46:43;15.70;1.00
2463;DHT22;1243;54.298;10.172;2023-05-10T13:49:09;15.80;1.00
2463;DHT22;1243;54.298;10.172;2023-05-10T13:51:38;15.80;3.20
2463;DHT22;1243;54.298;10.172;2023-05-10T13:54:04;15.80;11.40
2463;DHT22;1243;54.298;10.172;2023-05-10T13:56:30;15.70;8.20
2463;DHT22;1243;54.298;10.172;2023-05-10T13:58:56;15.70;17.30
2463;DHT22;1243;54.298;10.172;2023-05-10T14:01:25;15.70;29.30
2463;DHT22;1243;54.298;10.172;2023-05-10T14:03:51;15.70;41.90
2463;DHT22;1243;54.298;10.172;2023-05-10T14:06:19;15.70;46.10
2463;DHT22;1243;54.298;10.172;2023-05-10T14:08:48;15.70;61.10
2463;DHT22;1243;54.298;10.172;2023-05-10T14:11:14;15.80;74.70
2463;DHT22;1243;54.298;10.172;2023-05-10T14:13:40;15.90;80.50
2463;DHT22;1243;54.298;10.172;2023-05-10T14:16:07;15.90;94.20
2463;DHT22;1243;54.298;10.172;2023-05-10T14:18:33;15.90;94.20
2463;DHT22;1243;54.298;10.172;2023-05-10T14:20:59;16.00;94.20
2463;DHT22;1243;54.298;10.172;2023-05-10T14:23:25;16.00;96.80
2463;DHT22;1243;54.298;10.172;2023-05-10T14:25:54;16.10;99.20
2463;DHT22;1243;54.298;10.172;2023-05-10T14:28:20;16.10;99.90
2463;DHT22;1243;54.298;10.172;2023-05-10T14:33:35;16.30;99.90
2463;DHT22;1243;54.298;10.172;2023-05-10T14:36:01;16.50;99.90
2463;DHT22;1243;54.298;10.172;2023-05-10T14:38:38;16.50;99.90
2463;DHT22;1243;54.298;10.172;2023-05-10T14:41:04;16.50;94.40
2463;DHT22;1243;54.298;10.172;2023-05-10T14:43:42;16.50;94.90
2463;DHT22;1243;54.298;10.172;2023-05-10T14:46:40;16.60;99.90
2463;DHT22;1243;54.298;10.172;2023-05-10T14:49:07;16.60;99.90
2463;DHT22;1243;54.298;10.172;2023-05-10T14:51:33;16.60;94.50
2463;DHT22;1243;54.298;10.172;2023-05-10T14:53:59;16.60;94.40
2463;DHT22;1243;54.298;10.172;2023-05-10T15:02:46;16.60;94.50
2463;DHT22;1243;54.298;10.172;2023-05-10T15:05:14;16.60;94.50
2463;DHT22;1243;54.298;10.172;2023-05-10T15:08:05;16.70;99.90
2463;DHT22;1243;54.298;10.172;2023-05-10T15:10:40;16.60;96.20
2463;DHT22;1243;54.298;10.172;2023-05-10T15:13:08;16.50;94.40
2463;DHT22;1243;54.298;10.172;2023-05-10T15:15:48;16.30;94.30
2463;DHT22;1243;54.298;10.172;2023-05-10T15:18:58;16.40;94.40
2463;DHT22;1243;54.298;10.172;2023-05-10T15:21:37;16.50;94.40
2463;DHT22;1243;54.298;10.172;2023-05-10T15:27:26;16.70;94.50
2463;DHT22;1243;54.298;10.172;2023-05-10T15:29:55;16.80;99.90
2463;DHT22;1243;54.298;10.172;2023-05-10T15:32:27;16.80;94.50
2463;DHT22;1243;54.298;10.172;2023-05-10T15:34:55;16.80;94.60
2463;DHT22;1243;54.298;10.172;2023-05-10T15:37:23;16.70;94.50
2463;DHT22;1243;54.298;10.172;2023-05-10T15:39:49;16.80;94.50
2463;DHT22;1243;54.298;10.172;2023-05-10T15:42:15;17.00;99.90
2463;DHT22;1243;54.298;10.172;2023-05-10T15:44:41;17.10;97.80
2463;DHT22;1243;54.298;10.172;2023-05-10T15:47:29;17.10;94.70
2463;DHT22;1243;54.298;10.172;2023-05-10T15:49:55;17.20;94.70
2463;DHT22;1243;54.298;10.172;2023-05-10T15:52:21;17.40;94.70
2463;DHT22;1243;54.298;10.172;2023-05-10T15:54:55;17.40;94.70
2463;DHT22;1243;54.298;10.172;2023-05-10T16:00:12;17.20;82.80
2463;DHT22;1243;54.298;10.172;2023-05-10T16:02:48;17.10;80.30
2463;DHT22;1243;54.298;10.172;2023-05-10T16:05:31;16.90;69.00
2463;DHT22;1243;54.298;10.172;2023-05-10T16:08:06;16.80;76.00
2463;DHT22;1243;54.298;10.172;2023-05-10T16:10:40;16.80;94.60
2463;DHT22;1243;54.298;10.172;2023-05-10T16:13:06;16.80;94.40
2463;DHT22;1243;54.298;10.172;2023-05-10T16:15:32;16.80;91.80
2463;DHT22;1243;54.298;10.172;2023-05-10T16:17:58;16.80;94.50
2463;DHT22;1243;54.298;10.172;2023-05-10T16:20:24;16.80;94.50
2463;DHT22;1243;54.298;10.172;2023-05-10T16:23:05;16.70;94.50
2463;DHT22;1243;54.298;10.172;2023-05-10T16:25:34;16.80;94.50
2463;DHT22;1243;54.298;10.172;2023-05-10T16:28:00;16.80;94.50
2463;DHT22;1243;54.298;10.172;2023-05-10T16:30:45;16.80;94.50
2463;DHT22;1243;54.298;10.172;2023-05-10T16:33:12;16.90;94.60
2463;DHT22;1243;54.298;10.172;2023-05-10T16:35:38;16.90;94.60
2463;DHT22;1243;54.298;10.172;2023-05-10T16:38:04;16.90;91.00
2463;DHT22;1243;54.298;10.172;2023-05-10T16:40:33;16.90;92.00
2463;DHT22;1243;54.298;10.172;2023-05-10T16:43:27;16.90;88.10
2463;DHT22;1243;54.298;10.172;2023-05-10T16:48:39;17.00;94.70
2463;DHT22;1243;54.298;10.172;2023-05-10T16:54:04;17.00;94.60
2463;DHT22;1243;54.298;10.172;2023-05-10T16:56:56;17.00;82.50
2463;DHT22;1243;54.298;10.172;2023-05-10T16:59:22;16.90;83.60
2463;DHT22;1243;54.298;10.172;2023-05-10T17:01:50;17.00;90.70
2463;DHT22;1243;54.298;10.172;2023-05-10T17:04:17;17.00;88.10
2463;DHT22;1243;54.298;10.172;2023-05-10T17:10:09;16.90;72.70
2463;DHT22;1243;54.298;10.172;2023-05-10T17:13:20;16.90;77.20
2463;DHT22;1243;54.298;10.172;2023-05-10T17:15:40;16.80;69.90
2463;DHT22;1243;54.298;10.172;2023-05-10T17:18:06;16.90;64.10
2463;DHT22;1243;54.298;10.172;2023-05-10T17:20:32;16.90;58.10
2463;DHT22;1243;54.298;10.172;2023-05-10T17:23:44;16.80;41.60
2463;DHT22;1243;54.298;10.172;2023-05-10T17:26:04;16.80;36.70
2463;DHT22;1243;54.298;10.172;2023-05-10T17:28:30;16.70;26.90
2463;DHT22;1243;54.298;10.172;2023-05-10T17:30:56;16.60;31.00
2463;DHT22;1243;54.298;10.172;2023-05-10T17:33:23;16.60;30.90
2463;DHT22;1243;54.298;10.172;2023-05-10T17:35:49;16.60;36.90
2463;DHT22;1243;54.298;10.172;2023-05-10T17:38:15;16.60;30.90
2463;DHT22;1243;54.298;10.172;2023-05-10T17:40:50;16.60;34.10
2463;DHT22;1243;54.298;10.172;2023-05-10T17:43:19;16.60;38.50
2463;DHT22;1243;54.298;10.172;2023-05-10T17:45:47;16.70;50.80
2463;DHT22;1243;54.298;10.172;2023-05-10T17:48:14;16.70;48.00
2463;DHT22;1243;54.298;10.172;2023-05-10T17:50:43;16.70;44.80
2463;DHT22;1243;54.298;10.172;2023-05-10T17:53:29;16.70;47.00
2463;DHT22;1243;54.298;10.172;2023-05-10T17:55:55;16.70;42.00
2463;DHT22;1243;54.298;10.172;2023-05-10T17:58:26;16.70;35.30